Airfield :
LOGIN :

Register | Disclaimer

   EN    FR    IT 

 










Legend :    VFR   Marginal VFR   IFR   Intensive IFR   Very Intensive IFR
Visi :
Ceiling :
>= 8 km
>= 3000ft
5 to 8 km
1000 to 3000 ft
1500m to 5 km
500 to 1000 ft
800 to 1500m
200 to 500 ft
< 800m
< 200 ft
Symbols :   Thunderstorms  Fog  Heavy snow  Heavy precipitations  Wind > 20 kt
SIGMETs :     Misc.  Thunderstorms  Icing  Turbulence  Mountain Waves  Volcanic Ashes






- Airport Elevation : 299 ft
- IATA code : EDM


LFRI - La Roche Sur Yon - Les Ajoncs

CURRENT METAR :
  • 180230Z AUTO VRB02KT 9999 FEW029 SCT200 BKN220 03/02 Q1028

EXPIRED METARs :
  • 180200Z AUTO 17004KT CAVOK 04/03 Q1028
  • 180130Z AUTO 18004KT CAVOK 04/03 Q1028
  • 180100Z AUTO 18005KT CAVOK 03/02 Q1029
  • 180030Z AUTO 20004KT CAVOK 04/02 Q1029
  • 180000Z AUTO 20003KT 9999 SCT033 BKN040 04/03 Q1029

TAF TAF LFRI
Valid from the 17 at 18:00 until the 18 at 18:00 UTC


171700Z 1718/1818 24006KT 9999 SCT035 SCT050
TEMPO 1718/1720 -SHRA SCT025CB
BECMG 1811/1813 10010KT



MET'MAP, your aeronautical weather chart ! - Copyright ORBIFLY December 2007 - Disclaimer

ORBIFLY MET'MAP TEAM :

Programming & Development : Alexandra Zaïnal
Concept & original design : Baudouin d'Aumeries
Assistance for programming : Marc-Olivier Méhu
Technical & hardware support : Manuel Goepfert

Contact : metmap@orbifly.com




SOURCES & CREDITS :

   NOAA